sensor_id;sensor_type;location;lat;lon;timestamp;P1;durP1;ratioP1;P2;durP2;ratioP2
25627;SDS011;40915;50.826;4.356;2023-10-08T00:01:17;5.75;;;2.92;;
25627;SDS011;40915;50.826;4.356;2023-10-08T00:03:44;6.93;;;2.83;;
25627;SDS011;40915;50.826;4.356;2023-10-08T00:06:20;3.90;;;2.42;;
25627;SDS011;40915;50.826;4.356;2023-10-08T00:08:46;5.30;;;2.30;;
25627;SDS011;40915;50.826;4.356;2023-10-08T00:11:13;4.40;;;2.80;;
25627;SDS011;40915;50.826;4.356;2023-10-08T00:13:41;6.50;;;2.80;;
25627;SDS011;40915;50.826;4.356;2023-10-08T00:16:09;4.18;;;2.47;;
25627;SDS011;40915;50.826;4.356;2023-10-08T00:18:36;6.18;;;2.80;;
25627;SDS011;40915;50.826;4.356;2023-10-08T00:21:03;7.93;;;3.10;;
25627;SDS011;40915;50.826;4.356;2023-10-08T00:23:35;5.93;;;2.58;;
25627;SDS011;40915;50.826;4.356;2023-10-08T00:26:07;5.57;;;2.70;;
25627;SDS011;40915;50.826;4.356;2023-10-08T00:28:33;5.15;;;2.70;;
25627;SDS011;40915;50.826;4.356;2023-10-08T00:31:01;6.07;;;2.50;;
25627;SDS011;40915;50.826;4.356;2023-10-08T00:33:40;4.78;;;2.50;;
25627;SDS011;40915;50.826;4.356;2023-10-08T00:36:09;6.20;;;2.83;;
25627;SDS011;40915;50.826;4.356;2023-10-08T00:38:48;10.77;;;3.20;;
25627;SDS011;40915;50.826;4.356;2023-10-08T00:41:20;8.73;;;2.88;;
25627;SDS011;40915;50.826;4.356;2023-10-08T00:43:53;4.25;;;2.67;;
25627;SDS011;40915;50.826;4.356;2023-10-08T00:46:22;5.60;;;2.75;;
25627;SDS011;40915;50.826;4.356;2023-10-08T00:48:51;5.97;;;3.67;;
25627;SDS011;40915;50.826;4.356;2023-10-08T00:51:21;7.53;;;3.22;;
25627;SDS011;40915;50.826;4.356;2023-10-08T00:53:58;7.22;;;2.78;;
25627;SDS011;40915;50.826;4.356;2023-10-08T00:56:30;6.88;;;3.10;;
25627;SDS011;40915;50.826;4.356;2023-10-08T00:59:16;8.95;;;3.15;;
25627;SDS011;40915;50.826;4.356;2023-10-08T01:01:46;8.43;;;3.20;;
25627;SDS011;40915;50.826;4.356;2023-10-08T01:04:20;5.90;;;2.75;;
25627;SDS011;40915;50.826;4.356;2023-10-08T01:06:53;5.45;;;3.00;;
25627;SDS011;40915;50.826;4.356;2023-10-08T01:09:24;6.80;;;3.20;;
25627;SDS011;40915;50.826;4.356;2023-10-08T01:14:46;5.70;;;2.92;;
25627;SDS011;40915;50.826;4.356;2023-10-08T01:17:14;6.60;;;3.10;;
25627;SDS011;40915;50.826;4.356;2023-10-08T01:19:41;4.53;;;2.60;;
25627;SDS011;40915;50.826;4.356;2023-10-08T01:22:10;7.57;;;3.53;;
25627;SDS011;40915;50.826;4.356;2023-10-08T01:24:43;8.30;;;3.30;;
25627;SDS011;40915;50.826;4.356;2023-10-08T01:27:13;5.90;;;2.70;;
25627;SDS011;40915;50.826;4.356;2023-10-08T01:29:44;6.70;;;2.90;;
25627;SDS011;40915;50.826;4.356;2023-10-08T01:32:10;8.00;;;3.40;;
25627;SDS011;40915;50.826;4.356;2023-10-08T01:34:36;7.30;;;3.03;;
25627;SDS011;40915;50.826;4.356;2023-10-08T01:37:02;5.70;;;3.05;;
25627;SDS011;40915;50.826;4.356;2023-10-08T01:39:35;7.30;;;3.10;;
25627;SDS011;40915;50.826;4.356;2023-10-08T01:42:01;6.45;;;2.92;;
25627;SDS011;40915;50.826;4.356;2023-10-08T01:44:27;6.05;;;2.67;;
25627;SDS011;40915;50.826;4.356;2023-10-08T01:46:54;6.22;;;2.85;;
25627;SDS011;40915;50.826;4.356;2023-10-08T01:49:23;6.65;;;3.03;;
25627;SDS011;40915;50.826;4.356;2023-10-08T01:51:54;9.38;;;3.15;;
25627;SDS011;40915;50.826;4.356;2023-10-08T01:54:19;7.43;;;2.90;;
25627;SDS011;40915;50.826;4.356;2023-10-08T01:56:46;5.00;;;3.00;;
25627;SDS011;40915;50.826;4.356;2023-10-08T01:59:14;9.02;;;3.40;;
25627;SDS011;40915;50.826;4.356;2023-10-08T02:01:41;8.93;;;3.22;;
25627;SDS011;40915;50.826;4.356;2023-10-08T02:04:10;7.00;;;2.90;;
25627;SDS011;40915;50.826;4.356;2023-10-08T02:06:37;4.65;;;3.00;;
25627;SDS011;40915;50.826;4.356;2023-10-08T02:09:04;5.53;;;3.25;;
25627;SDS011;40915;50.826;4.356;2023-10-08T02:11:45;5.95;;;3.20;;
25627;SDS011;40915;50.826;4.356;2023-10-08T02:14:15;7.88;;;3.42;;
25627;SDS011;40915;50.826;4.356;2023-10-08T02:16:42;7.10;;;3.28;;
25627;SDS011;40915;50.826;4.356;2023-10-08T02:19:09;8.70;;;3.30;;
25627;SDS011;40915;50.826;4.356;2023-10-08T02:21:36;7.07;;;3.20;;
25627;SDS011;40915;50.826;4.356;2023-10-08T02:24:06;9.20;;;3.22;;
25627;SDS011;40915;50.826;4.356;2023-10-08T02:26:32;6.32;;;3.20;;
25627;SDS011;40915;50.826;4.356;2023-10-08T02:28:59;5.50;;;3.13;;
25627;SDS011;40915;50.826;4.356;2023-10-08T02:31:26;5.90;;;2.88;;
25627;SDS011;40915;50.826;4.356;2023-10-08T02:33:52;7.45;;;3.13;;
25627;SDS011;40915;50.826;4.356;2023-10-08T02:36:19;5.35;;;2.83;;
25627;SDS011;40915;50.826;4.356;2023-10-08T02:38:44;8.50;;;3.13;;
25627;SDS011;40915;50.826;4.356;2023-10-08T02:41:15;8.32;;;3.35;;
25627;SDS011;40915;50.826;4.356;2023-10-08T02:43:41;6.72;;;3.03;;
25627;SDS011;40915;50.826;4.356;2023-10-08T02:46:07;5.93;;;3.30;;
25627;SDS011;40915;50.826;4.356;2023-10-08T02:48:39;5.80;;;3.10;;
25627;SDS011;40915;50.826;4.356;2023-10-08T02:51:04;8.50;;;2.90;;
25627;SDS011;40915;50.826;4.356;2023-10-08T02:53:39;6.68;;;3.38;;
25627;SDS011;40915;50.826;4.356;2023-10-08T02:56:09;6.55;;;3.03;;
25627;SDS011;40915;50.826;4.356;2023-10-08T02:58:41;8.82;;;3.17;;
25627;SDS011;40915;50.826;4.356;2023-10-08T03:01:11;6.43;;;3.00;;
25627;SDS011;40915;50.826;4.356;2023-10-08T03:03:38;6.13;;;2.80;;
25627;SDS011;40915;50.826;4.356;2023-10-08T03:06:06;6.20;;;2.95;;
25627;SDS011;40915;50.826;4.356;2023-10-08T03:08:36;7.63;;;2.85;;
25627;SDS011;40915;50.826;4.356;2023-10-08T03:11:05;5.82;;;3.28;;
25627;SDS011;40915;50.826;4.356;2023-10-08T03:13:31;6.07;;;3.15;;
25627;SDS011;40915;50.826;4.356;2023-10-08T03:15:57;7.07;;;3.53;;
25627;SDS011;40915;50.826;4.356;2023-10-08T03:18:33;6.40;;;3.20;;
25627;SDS011;40915;50.826;4.356;2023-10-08T03:21:06;8.15;;;3.40;;
25627;SDS011;40915;50.826;4.356;2023-10-08T03:23:48;8.13;;;3.63;;
25627;SDS011;40915;50.826;4.356;2023-10-08T03:26:15;5.68;;;3.08;;
25627;SDS011;40915;50.826;4.356;2023-10-08T03:29:02;5.20;;;3.45;;
25627;SDS011;40915;50.826;4.356;2023-10-08T03:31:34;8.55;;;3.50;;
25627;SDS011;40915;50.826;4.356;2023-10-08T03:34:12;7.55;;;3.58;;
25627;SDS011;40915;50.826;4.356;2023-10-08T03:36:43;7.07;;;3.30;;
25627;SDS011;40915;50.826;4.356;2023-10-08T03:39:09;7.65;;;3.20;;
25627;SDS011;40915;50.826;4.356;2023-10-08T03:41:45;6.00;;;3.67;;
25627;SDS011;40915;50.826;4.356;2023-10-08T03:44:30;11.20;;;4.28;;
25627;SDS011;40915;50.826;4.356;2023-10-08T03:46:56;8.05;;;3.50;;
25627;SDS011;40915;50.826;4.356;2023-10-08T03:49:22;7.38;;;3.45;;
25627;SDS011;40915;50.826;4.356;2023-10-08T03:51:48;6.28;;;3.40;;
25627;SDS011;40915;50.826;4.356;2023-10-08T03:54:20;7.47;;;3.75;;
25627;SDS011;40915;50.826;4.356;2023-10-08T03:56:58;6.88;;;3.33;;
25627;SDS011;40915;50.826;4.356;2023-10-08T03:59:25;5.85;;;3.40;;
25627;SDS011;40915;50.826;4.356;2023-10-08T04:01:59;7.68;;;3.30;;
25627;SDS011;40915;50.826;4.356;2023-10-08T04:04:48;6.43;;;3.20;;
25627;SDS011;40915;50.826;4.356;2023-10-08T04:07:16;5.32;;;3.10;;
25627;SDS011;40915;50.826;4.356;2023-10-08T04:09:50;7.20;;;3.13;;
25627;SDS011;40915;50.826;4.356;2023-10-08T04:12:24;5.22;;;3.33;;
25627;SDS011;40915;50.826;4.356;2023-10-08T04:14:52;6.28;;;3.17;;
25627;SDS011;40915;50.826;4.356;2023-10-08T04:17:20;7.40;;;3.28;;
25627;SDS011;40915;50.826;4.356;2023-10-08T04:19:47;8.30;;;3.97;;
25627;SDS011;40915;50.826;4.356;2023-10-08T04:22:16;8.27;;;4.00;;
25627;SDS011;40915;50.826;4.356;2023-10-08T04:24:44;5.15;;;3.05;;
25627;SDS011;40915;50.826;4.356;2023-10-08T04:27:10;6.72;;;3.50;;
25627;SDS011;40915;50.826;4.356;2023-10-08T04:29:36;6.93;;;3.22;;
25627;SDS011;40915;50.826;4.356;2023-10-08T04:32:03;7.65;;;3.20;;
25627;SDS011;40915;50.826;4.356;2023-10-08T04:34:37;7.32;;;3.38;;
25627;SDS011;40915;50.826;4.356;2023-10-08T04:37:09;6.93;;;3.42;;
25627;SDS011;40915;50.826;4.356;2023-10-08T04:39:39;7.90;;;3.80;;
25627;SDS011;40915;50.826;4.356;2023-10-08T04:42:11;9.52;;;4.32;;
25627;SDS011;40915;50.826;4.356;2023-10-08T04:44:39;7.55;;;3.60;;
25627;SDS011;40915;50.826;4.356;2023-10-08T04:47:06;6.32;;;3.70;;
25627;SDS011;40915;50.826;4.356;2023-10-08T04:49:33;7.55;;;3.72;;
25627;SDS011;40915;50.826;4.356;2023-10-08T04:52:04;7.05;;;3.50;;
25627;SDS011;40915;50.826;4.356;2023-10-08T04:54:39;6.75;;;3.72;;
25627;SDS011;40915;50.826;4.356;2023-10-08T04:57:05;6.63;;;3.35;;
25627;SDS011;40915;50.826;4.356;2023-10-08T04:59:32;5.60;;;3.03;;
25627;SDS011;40915;50.826;4.356;2023-10-08T05:02:02;8.10;;;3.70;;
25627;SDS011;40915;50.826;4.356;2023-10-08T05:04:38;7.68;;;4.20;;
25627;SDS011;40915;50.826;4.356;2023-10-08T05:07:21;8.77;;;3.38;;
25627;SDS011;40915;50.826;4.356;2023-10-08T05:10:25;5.70;;;3.60;;
25627;SDS011;40915;50.826;4.356;2023-10-08T05:12:51;11.27;;;3.97;;
25627;SDS011;40915;50.826;4.356;2023-10-08T05:15:39;7.20;;;4.03;;
25627;SDS011;40915;50.826;4.356;2023-10-08T05:18:27;5.50;;;3.30;;
25627;SDS011;40915;50.826;4.356;2023-10-08T05:21:13;5.25;;;3.38;;
25627;SDS011;40915;50.826;4.356;2023-10-08T05:23:53;6.55;;;3.67;;
25627;SDS011;40915;50.826;4.356;2023-10-08T05:26:33;6.30;;;3.33;;
25627;SDS011;40915;50.826;4.356;2023-10-08T05:29:07;7.47;;;3.42;;
25627;SDS011;40915;50.826;4.356;2023-10-08T05:31:53;8.48;;;3.72;;
25627;SDS011;40915;50.826;4.356;2023-10-08T05:34:39;7.38;;;3.47;;
25627;SDS011;40915;50.826;4.356;2023-10-08T05:37:16;7.80;;;3.55;;
25627;SDS011;40915;50.826;4.356;2023-10-08T05:39:57;8.43;;;3.75;;
25627;SDS011;40915;50.826;4.356;2023-10-08T05:42:37;7.47;;;3.40;;
25627;SDS011;40915;50.826;4.356;2023-10-08T05:45:11;6.70;;;3.90;;
25627;SDS011;40915;50.826;4.356;2023-10-08T05:47:37;6.75;;;3.53;;
25627;SDS011;40915;50.826;4.356;2023-10-08T05:50:03;9.93;;;4.05;;
25627;SDS011;40915;50.826;4.356;2023-10-08T05:52:42;11.18;;;4.40;;
25627;SDS011;40915;50.826;4.356;2023-10-08T05:55:30;7.63;;;3.70;;
25627;SDS011;40915;50.826;4.356;2023-10-08T05:58:06;6.85;;;3.30;;
25627;SDS011;40915;50.826;4.356;2023-10-08T06:00:47;7.00;;;3.75;;
25627;SDS011;40915;50.826;4.356;2023-10-08T06:03:32;7.85;;;3.40;;
25627;SDS011;40915;50.826;4.356;2023-10-08T06:06:02;7.07;;;3.63;;
25627;SDS011;40915;50.826;4.356;2023-10-08T06:08:48;6.35;;;3.83;;
25627;SDS011;40915;50.826;4.356;2023-10-08T06:11:32;9.32;;;3.88;;
25627;SDS011;40915;50.826;4.356;2023-10-08T06:14:22;7.15;;;3.45;;
25627;SDS011;40915;50.826;4.356;2023-10-08T06:17:07;6.93;;;3.22;;
25627;SDS011;40915;50.826;4.356;2023-10-08T06:19:49;7.72;;;4.05;;
25627;SDS011;40915;50.826;4.356;2023-10-08T06:22:17;9.10;;;4.20;;
25627;SDS011;40915;50.826;4.356;2023-10-08T06:24:44;7.68;;;3.67;;
25627;SDS011;40915;50.826;4.356;2023-10-08T06:27:10;5.85;;;3.40;;
25627;SDS011;40915;50.826;4.356;2023-10-08T06:29:42;5.88;;;3.80;;
25627;SDS011;40915;50.826;4.356;2023-10-08T06:32:09;7.00;;;3.40;;
25627;SDS011;40915;50.826;4.356;2023-10-08T06:34:37;6.57;;;3.80;;
25627;SDS011;40915;50.826;4.356;2023-10-08T06:37:05;5.82;;;3.35;;
25627;SDS011;40915;50.826;4.356;2023-10-08T06:39:33;9.63;;;4.00;;
25627;SDS011;40915;50.826;4.356;2023-10-08T06:42:12;7.28;;;4.05;;
25627;SDS011;40915;50.826;4.356;2023-10-08T06:44:39;7.18;;;3.78;;
25627;SDS011;40915;50.826;4.356;2023-10-08T06:47:08;6.28;;;3.45;;
25627;SDS011;40915;50.826;4.356;2023-10-08T06:49:34;7.70;;;4.40;;
25627;SDS011;40915;50.826;4.356;2023-10-08T06:52:01;7.32;;;4.00;;
25627;SDS011;40915;50.826;4.356;2023-10-08T06:54:29;7.82;;;3.97;;
25627;SDS011;40915;50.826;4.356;2023-10-08T06:56:55;6.93;;;3.55;;
25627;SDS011;40915;50.826;4.356;2023-10-08T06:59:22;7.60;;;3.70;;
25627;SDS011;40915;50.826;4.356;2023-10-08T07:01:48;9.50;;;4.05;;
25627;SDS011;40915;50.826;4.356;2023-10-08T07:04:17;8.73;;;4.05;;
25627;SDS011;40915;50.826;4.356;2023-10-08T07:06:44;12.50;;;4.85;;
25627;SDS011;40915;50.826;4.356;2023-10-08T07:09:11;9.57;;;3.80;;
25627;SDS011;40915;50.826;4.356;2023-10-08T07:11:54;6.80;;;3.58;;
25627;SDS011;40915;50.826;4.356;2023-10-08T07:14:21;6.25;;;3.83;;
25627;SDS011;40915;50.826;4.356;2023-10-08T07:16:52;6.13;;;3.22;;
25627;SDS011;40915;50.826;4.356;2023-10-08T07:19:19;12.93;;;4.13;;
25627;SDS011;40915;50.826;4.356;2023-10-08T07:21:48;6.32;;;3.20;;
25627;SDS011;40915;50.826;4.356;2023-10-08T07:24:19;8.85;;;3.92;;
25627;SDS011;40915;50.826;4.356;2023-10-08T07:26:47;7.80;;;3.78;;
25627;SDS011;40915;50.826;4.356;2023-10-08T07:29:14;9.52;;;4.10;;
25627;SDS011;40915;50.826;4.356;2023-10-08T07:31:44;8.13;;;3.53;;
25627;SDS011;40915;50.826;4.356;2023-10-08T07:34:14;8.20;;;4.07;;
25627;SDS011;40915;50.826;4.356;2023-10-08T07:36:46;6.93;;;3.80;;
25627;SDS011;40915;50.826;4.356;2023-10-08T07:39:15;8.20;;;3.97;;
25627;SDS011;40915;50.826;4.356;2023-10-08T07:41:56;6.18;;;3.30;;
25627;SDS011;40915;50.826;4.356;2023-10-08T07:44:24;10.68;;;4.40;;
25627;SDS011;40915;50.826;4.356;2023-10-08T07:46:50;7.13;;;3.92;;
25627;SDS011;40915;50.826;4.356;2023-10-08T07:49:17;8.02;;;4.22;;
25627;SDS011;40915;50.826;4.356;2023-10-08T07:51:43;6.90;;;3.92;;
25627;SDS011;40915;50.826;4.356;2023-10-08T07:54:16;10.48;;;3.92;;
25627;SDS011;40915;50.826;4.356;2023-10-08T07:56:44;6.45;;;3.55;;
25627;SDS011;40915;50.826;4.356;2023-10-08T07:59:10;8.27;;;3.97;;
25627;SDS011;40915;50.826;4.356;2023-10-08T08:01:39;7.60;;;3.65;;
25627;SDS011;40915;50.826;4.356;2023-10-08T08:04:07;6.97;;;3.63;;
25627;SDS011;40915;50.826;4.356;2023-10-08T08:06:35;5.57;;;3.88;;
25627;SDS011;40915;50.826;4.356;2023-10-08T08:09:02;7.35;;;3.75;;
25627;SDS011;40915;50.826;4.356;2023-10-08T08:11:33;8.45;;;4.35;;
25627;SDS011;40915;50.826;4.356;2023-10-08T08:14:02;8.60;;;4.20;;
25627;SDS011;40915;50.826;4.356;2023-10-08T08:16:33;9.77;;;4.13;;
25627;SDS011;40915;50.826;4.356;2023-10-08T08:19:01;9.35;;;4.53;;
25627;SDS011;40915;50.826;4.356;2023-10-08T08:21:27;10.25;;;4.35;;
25627;SDS011;40915;50.826;4.356;2023-10-08T08:23:55;7.85;;;3.92;;
25627;SDS011;40915;50.826;4.356;2023-10-08T08:26:30;7.75;;;4.55;;
25627;SDS011;40915;50.826;4.356;2023-10-08T08:29:04;9.63;;;4.30;;
25627;SDS011;40915;50.826;4.356;2023-10-08T08:31:34;7.85;;;4.25;;
25627;SDS011;40915;50.826;4.356;2023-10-08T08:34:00;7.57;;;4.40;;
25627;SDS011;40915;50.826;4.356;2023-10-08T08:36:28;7.30;;;3.75;;
25627;SDS011;40915;50.826;4.356;2023-10-08T08:38:55;7.03;;;4.05;;
25627;SDS011;40915;50.826;4.356;2023-10-08T08:41:21;7.82;;;3.72;;
25627;SDS011;40915;50.826;4.356;2023-10-08T08:43:51;8.10;;;4.68;;
25627;SDS011;40915;50.826;4.356;2023-10-08T08:46:33;11.85;;;4.20;;
25627;SDS011;40915;50.826;4.356;2023-10-08T08:49:04;8.43;;;4.60;;
25627;SDS011;40915;50.826;4.356;2023-10-08T08:51:30;12.00;;;4.50;;
25627;SDS011;40915;50.826;4.356;2023-10-08T08:53:56;9.38;;;4.65;;
25627;SDS011;40915;50.826;4.356;2023-10-08T08:56:25;8.38;;;4.45;;
25627;SDS011;40915;50.826;4.356;2023-10-08T08:58:52;13.20;;;4.80;;
25627;SDS011;40915;50.826;4.356;2023-10-08T09:01:18;15.32;;;5.00;;
25627;SDS011;40915;50.826;4.356;2023-10-08T09:03:44;10.85;;;4.70;;
25627;SDS011;40915;50.826;4.356;2023-10-08T09:06:13;13.65;;;5.07;;
25627;SDS011;40915;50.826;4.356;2023-10-08T09:08:39;10.18;;;5.20;;
25627;SDS011;40915;50.826;4.356;2023-10-08T09:11:07;11.07;;;4.63;;
25627;SDS011;40915;50.826;4.356;2023-10-08T09:13:33;8.50;;;4.65;;
25627;SDS011;40915;50.826;4.356;2023-10-08T09:16:07;11.07;;;4.72;;
25627;SDS011;40915;50.826;4.356;2023-10-08T09:18:40;12.40;;;5.13;;
25627;SDS011;40915;50.826;4.356;2023-10-08T09:21:11;14.02;;;5.18;;
25627;SDS011;40915;50.826;4.356;2023-10-08T09:23:49;10.82;;;5.40;;
25627;SDS011;40915;50.826;4.356;2023-10-08T09:26:22;11.18;;;5.22;;
25627;SDS011;40915;50.826;4.356;2023-10-08T09:28:49;11.40;;;5.50;;
25627;SDS011;40915;50.826;4.356;2023-10-08T09:31:16;10.07;;;4.20;;
25627;SDS011;40915;50.826;4.356;2023-10-08T09:33:43;13.38;;;5.60;;
25627;SDS011;40915;50.826;4.356;2023-10-08T09:36:18;14.43;;;4.88;;
25627;SDS011;40915;50.826;4.356;2023-10-08T09:38:45;10.73;;;4.38;;
25627;SDS011;40915;50.826;4.356;2023-10-08T09:41:13;9.52;;;5.10;;
25627;SDS011;40915;50.826;4.356;2023-10-08T09:43:40;11.02;;;4.97;;
25627;SDS011;40915;50.826;4.356;2023-10-08T09:46:18;11.10;;;5.28;;
25627;SDS011;40915;50.826;4.356;2023-10-08T09:48:49;12.48;;;5.60;;
25627;SDS011;40915;50.826;4.356;2023-10-08T09:51:18;11.13;;;4.75;;
25627;SDS011;40915;50.826;4.356;2023-10-08T09:56:43;10.10;;;5.03;;
25627;SDS011;40915;50.826;4.356;2023-10-08T09:59:10;9.35;;;4.68;;
25627;SDS011;40915;50.826;4.356;2023-10-08T10:01:37;11.23;;;5.28;;
25627;SDS011;40915;50.826;4.356;2023-10-08T10:04:09;13.02;;;5.78;;
25627;SDS011;40915;50.826;4.356;2023-10-08T10:06:37;12.70;;;6.05;;
25627;SDS011;40915;50.826;4.356;2023-10-08T10:09:04;10.07;;;4.93;;
25627;SDS011;40915;50.826;4.356;2023-10-08T10:11:40;12.48;;;5.40;;
25627;SDS011;40915;50.826;4.356;2023-10-08T10:14:12;14.48;;;5.28;;
25627;SDS011;40915;50.826;4.356;2023-10-08T10:16:38;10.00;;;5.20;;
25627;SDS011;40915;50.826;4.356;2023-10-08T10:19:06;12.00;;;5.22;;
25627;SDS011;40915;50.826;4.356;2023-10-08T10:21:43;12.23;;;5.35;;
25627;SDS011;40915;50.826;4.356;2023-10-08T10:24:22;12.32;;;5.18;;
25627;SDS011;40915;50.826;4.356;2023-10-08T10:29:39;12.68;;;5.57;;
25627;SDS011;40915;50.826;4.356;2023-10-08T10:32:08;12.05;;;5.20;;
25627;SDS011;40915;50.826;4.356;2023-10-08T10:34:38;12.82;;;5.20;;
25627;SDS011;40915;50.826;4.356;2023-10-08T10:37:04;14.32;;;5.43;;
25627;SDS011;40915;50.826;4.356;2023-10-08T10:39:54;12.25;;;5.30;;
25627;SDS011;40915;50.826;4.356;2023-10-08T10:42:24;11.30;;;5.22;;
25627;SDS011;40915;50.826;4.356;2023-10-08T10:44:52;12.13;;;5.78;;
25627;SDS011;40915;50.826;4.356;2023-10-08T10:47:18;11.18;;;5.43;;
25627;SDS011;40915;50.826;4.356;2023-10-08T10:49:48;11.00;;;5.28;;
25627;SDS011;40915;50.826;4.356;2023-10-08T10:52:21;12.23;;;5.40;;
25627;SDS011;40915;50.826;4.356;2023-10-08T10:54:59;16.27;;;5.43;;
25627;SDS011;40915;50.826;4.356;2023-10-08T10:57:53;13.70;;;5.40;;
25627;SDS011;40915;50.826;4.356;2023-10-08T11:00:36;11.68;;;5.45;;
25627;SDS011;40915;50.826;4.356;2023-10-08T11:03:03;13.07;;;6.13;;
25627;SDS011;40915;50.826;4.356;2023-10-08T11:05:36;12.13;;;5.45;;
25627;SDS011;40915;50.826;4.356;2023-10-08T11:08:07;9.77;;;5.13;;
25627;SDS011;40915;50.826;4.356;2023-10-08T11:10:34;18.30;;;6.30;;
25627;SDS011;40915;50.826;4.356;2023-10-08T11:13:03;14.55;;;5.63;;
25627;SDS011;40915;50.826;4.356;2023-10-08T11:15:39;12.20;;;5.47;;
25627;SDS011;40915;50.826;4.356;2023-10-08T11:18:11;11.25;;;5.40;;
25627;SDS011;40915;50.826;4.356;2023-10-08T11:20:41;9.50;;;5.13;;
25627;SDS011;40915;50.826;4.356;2023-10-08T11:25:59;11.13;;;5.80;;
25627;SDS011;40915;50.826;4.356;2023-10-08T11:28:37;10.65;;;5.63;;
25627;SDS011;40915;50.826;4.356;2023-10-08T11:31:07;11.13;;;5.63;;
25627;SDS011;40915;50.826;4.356;2023-10-08T11:33:39;11.07;;;5.75;;
25627;SDS011;40915;50.826;4.356;2023-10-08T11:36:06;9.63;;;5.57;;
25627;SDS011;40915;50.826;4.356;2023-10-08T11:38:43;10.30;;;5.03;;
25627;SDS011;40915;50.826;4.356;2023-10-08T11:41:13;11.18;;;5.60;;
25627;SDS011;40915;50.826;4.356;2023-10-08T11:43:47;11.02;;;5.38;;
25627;SDS011;40915;50.826;4.356;2023-10-08T11:46:13;12.80;;;4.80;;
25627;SDS011;40915;50.826;4.356;2023-10-08T11:48:43;16.50;;;6.75;;
25627;SDS011;40915;50.826;4.356;2023-10-08T11:51:11;10.95;;;5.65;;
25627;SDS011;40915;50.826;4.356;2023-10-08T11:53:41;15.45;;;6.05;;
25627;SDS011;40915;50.826;4.356;2023-10-08T11:56:09;11.85;;;5.75;;
25627;SDS011;40915;50.826;4.356;2023-10-08T11:58:41;10.60;;;6.32;;
25627;SDS011;40915;50.826;4.356;2023-10-08T12:01:10;17.95;;;6.82;;
25627;SDS011;40915;50.826;4.356;2023-10-08T12:03:41;15.45;;;6.50;;
25627;SDS011;40915;50.826;4.356;2023-10-08T12:06:08;13.88;;;6.57;;
25627;SDS011;40915;50.826;4.356;2023-10-08T12:08:40;15.82;;;6.20;;
25627;SDS011;40915;50.826;4.356;2023-10-08T12:11:10;9.15;;;5.60;;
25627;SDS011;40915;50.826;4.356;2023-10-08T12:13:40;10.82;;;5.30;;
25627;SDS011;40915;50.826;4.356;2023-10-08T12:16:15;16.58;;;5.82;;
25627;SDS011;40915;50.826;4.356;2023-10-08T12:18:47;12.55;;;5.45;;
25627;SDS011;40915;50.826;4.356;2023-10-08T12:21:14;11.57;;;5.32;;
25627;SDS011;40915;50.826;4.356;2023-10-08T12:23:41;12.73;;;5.20;;
25627;SDS011;40915;50.826;4.356;2023-10-08T12:26:15;13.55;;;5.13;;
25627;SDS011;40915;50.826;4.356;2023-10-08T12:28:46;12.80;;;5.63;;
25627;SDS011;40915;50.826;4.356;2023-10-08T12:31:16;10.70;;;5.45;;
25627;SDS011;40915;50.826;4.356;2023-10-08T12:33:50;12.43;;;5.65;;
25627;SDS011;40915;50.826;4.356;2023-10-08T12:36:21;12.68;;;5.10;;
25627;SDS011;40915;50.826;4.356;2023-10-08T12:38:52;11.98;;;5.25;;
25627;SDS011;40915;50.826;4.356;2023-10-08T12:41:24;14.07;;;6.00;;
25627;SDS011;40915;50.826;4.356;2023-10-08T12:43:53;11.40;;;4.90;;
25627;SDS011;40915;50.826;4.356;2023-10-08T12:46:19;11.93;;;5.15;;
25627;SDS011;40915;50.826;4.356;2023-10-08T12:48:55;11.90;;;5.45;;
25627;SDS011;40915;50.826;4.356;2023-10-08T12:51:22;15.18;;;5.70;;
25627;SDS011;40915;50.826;4.356;2023-10-08T12:53:49;12.75;;;5.63;;
25627;SDS011;40915;50.826;4.356;2023-10-08T12:56:20;11.00;;;5.05;;
25627;SDS011;40915;50.826;4.356;2023-10-08T12:58:56;13.55;;;5.75;;
25627;SDS011;40915;50.826;4.356;2023-10-08T13:01:22;11.30;;;5.05;;
25627;SDS011;40915;50.826;4.356;2023-10-08T13:03:48;8.15;;;5.70;;
25627;SDS011;40915;50.826;4.356;2023-10-08T13:06:14;10.57;;;5.55;;
25627;SDS011;40915;50.826;4.356;2023-10-08T13:08:53;10.05;;;5.68;;
25627;SDS011;40915;50.826;4.356;2023-10-08T13:11:25;14.02;;;6.70;;
25627;SDS011;40915;50.826;4.356;2023-10-08T13:13:55;11.85;;;5.78;;
25627;SDS011;40915;50.826;4.356;2023-10-08T13:16:21;15.13;;;5.63;;
25627;SDS011;40915;50.826;4.356;2023-10-08T13:18:48;8.10;;;4.68;;
25627;SDS011;40915;50.826;4.356;2023-10-08T13:21:14;10.80;;;5.10;;
25627;SDS011;40915;50.826;4.356;2023-10-08T13:23:40;12.00;;;5.55;;
25627;SDS011;40915;50.826;4.356;2023-10-08T13:26:07;10.43;;;5.25;;
25627;SDS011;40915;50.826;4.356;2023-10-08T13:28:33;11.10;;;5.28;;
25627;SDS011;40915;50.826;4.356;2023-10-08T13:31:01;11.13;;;5.80;;
25627;SDS011;40915;50.826;4.356;2023-10-08T13:33:35;9.18;;;5.10;;
25627;SDS011;40915;50.826;4.356;2023-10-08T13:36:04;9.73;;;5.53;;
25627;SDS011;40915;50.826;4.356;2023-10-08T13:38:33;13.10;;;5.72;;
25627;SDS011;40915;50.826;4.356;2023-10-08T13:41:01;9.93;;;5.82;;
25627;SDS011;40915;50.826;4.356;2023-10-08T13:43:32;11.90;;;5.85;;
25627;SDS011;40915;50.826;4.356;2023-10-08T13:46:00;8.32;;;5.53;;
25627;SDS011;40915;50.826;4.356;2023-10-08T13:48:32;12.02;;;6.07;;
25627;SDS011;40915;50.826;4.356;2023-10-08T13:51:03;9.00;;;5.63;;
25627;SDS011;40915;50.826;4.356;2023-10-08T13:53:33;9.60;;;5.60;;
25627;SDS011;40915;50.826;4.356;2023-10-08T13:56:01;9.32;;;5.35;;
25627;SDS011;40915;50.826;4.356;2023-10-08T13:58:32;9.88;;;5.63;;
25627;SDS011;40915;50.826;4.356;2023-10-08T14:01:01;10.20;;;5.03;;
25627;SDS011;40915;50.826;4.356;2023-10-08T14:03:43;10.70;;;5.00;;
25627;SDS011;40915;50.826;4.356;2023-10-08T14:06:10;10.35;;;5.25;;
25627;SDS011;40915;50.826;4.356;2023-10-08T14:08:37;9.48;;;5.18;;
25627;SDS011;40915;50.826;4.356;2023-10-08T14:11:04;8.30;;;5.20;;
25627;SDS011;40915;50.826;4.356;2023-10-08T14:13:31;10.68;;;5.47;;
25627;SDS011;40915;50.826;4.356;2023-10-08T14:15:59;12.75;;;5.50;;
25627;SDS011;40915;50.826;4.356;2023-10-08T14:18:30;11.50;;;5.47;;
25627;SDS011;40915;50.826;4.356;2023-10-08T14:21:05;9.90;;;5.38;;
25627;SDS011;40915;50.826;4.356;2023-10-08T14:23:35;9.20;;;4.85;;
25627;SDS011;40915;50.826;4.356;2023-10-08T14:26:05;8.40;;;5.15;;
25627;SDS011;40915;50.826;4.356;2023-10-08T14:28:32;8.68;;;5.13;;
25627;SDS011;40915;50.826;4.356;2023-10-08T14:31:16;10.88;;;5.00;;
25627;SDS011;40915;50.826;4.356;2023-10-08T14:33:42;9.13;;;4.90;;
25627;SDS011;40915;50.826;4.356;2023-10-08T14:36:23;8.63;;;5.13;;
25627;SDS011;40915;50.826;4.356;2023-10-08T14:39:08;12.95;;;5.50;;
25627;SDS011;40915;50.826;4.356;2023-10-08T14:41:52;13.35;;;5.53;;
25627;SDS011;40915;50.826;4.356;2023-10-08T14:44:36;10.15;;;5.30;;
25627;SDS011;40915;50.826;4.356;2023-10-08T14:47:02;9.13;;;4.97;;
25627;SDS011;40915;50.826;4.356;2023-10-08T14:49:29;13.82;;;5.72;;
25627;SDS011;40915;50.826;4.356;2023-10-08T14:51:55;10.32;;;5.90;;
25627;SDS011;40915;50.826;4.356;2023-10-08T14:54:20;12.32;;;5.22;;
25627;SDS011;40915;50.826;4.356;2023-10-08T14:56:46;9.90;;;5.70;;
25627;SDS011;40915;50.826;4.356;2023-10-08T14:59:12;10.25;;;5.55;;
25627;SDS011;40915;50.826;4.356;2023-10-08T15:01:40;9.43;;;4.88;;
25627;SDS011;40915;50.826;4.356;2023-10-08T15:04:06;8.70;;;4.88;;
25627;SDS011;40915;50.826;4.356;2023-10-08T15:06:36;7.70;;;4.70;;
25627;SDS011;40915;50.826;4.356;2023-10-08T15:09:03;11.73;;;5.50;;
25627;SDS011;40915;50.826;4.356;2023-10-08T15:11:43;10.32;;;4.88;;
25627;SDS011;40915;50.826;4.356;2023-10-08T15:14:11;8.95;;;4.97;;
25627;SDS011;40915;50.826;4.356;2023-10-08T15:16:37;8.18;;;5.18;;